Shache, China
Current Conditions -  °F | °C
As of 2:00 PM on Sunday 26 Oct 2014 (Local Time) from ZWSH Reporting Station
Clear Clear  
Wind Chill: 66°   Ceiling: Unl
Heat Index: 66°   Visibility: 6mi
Dew Point: 21°   Wind: 7mph
Humidity: 18%   Direction: NA
Pressure: 30.09"   Gusts: NA
Location:  38.42°N, 77.25°E
Report Text: ZWSH 260600Z VRB03MPS CAVOK 19/M06 Q1019 NOSIG
Loading
Personal Weather Stations






























Interactive Weather Map
Tropical Storm Tracking
New forecast layout! Learn more

10-Day Weather Forecast

Advertisements
Track Severe Weather on mobile